Time;durP1;ratioP1;P1;durP2;ratioP2;P2;SDS_P1;SDS_P2;PMS_P1;PMS_P2;Temp;Humidity;BMP_temperature;BMP_pressure;BME280_temperature;BME280_humidity;BME280_pressure;Samples;Min_cycle;Max_cycle;Signal;HPM_P1;HPM_P2
2021/07/02 00:22:29;308940.00;1.03;533.29;60627.00;0.20;105.56;;;;;20.60;1.00;;;;;;2266501;61;1977;-80
2021/07/02 00:42:12;235425.00;0.78;406.88;39141.00;0.13;68.40;;;;;20.20;1.00;;;;;;2262459;61;1894;-84
2021/07/02 00:54:30;142039.00;0.47;246.09;0.00;0.00;0.62;;;;;20.20;1.00;;;;;;2267327;61;916;-85
2021/07/02 01:53:45;288264.00;0.96;497.74;13941.00;0.05;24.78;;;;;19.40;1.00;;;;;;2267251;61;981;-83
2021/07/02 02:35:46;176798.00;0.59;305.98;63801.00;0.21;111.05;;;;;18.70;1.00;;;;;;2262865;61;1381;-85
2021/07/02 03:05:20;55576.00;0.19;96.83;0.00;0.00;0.62;;;;;19.60;1.00;;;;;;2499634;40;3629;31
2021/07/02 03:07:46;12548.00;0.04;22.36;0.00;0.00;0.62;;;;;19.80;1.00;;;;;;2407462;55;4103;31
2021/07/02 03:15:10;45202.00;0.15;78.89;0.00;0.00;0.62;;;;;19.50;1.00;;;;;;2270782;61;1004;-86
2021/07/02 03:27:29;30321.00;0.10;53.14;0.00;0.00;0.62;;;;;19.40;1.00;;;;;;2460648;40;3543;31
2021/07/02 03:39:47;0.00;0.00;0.62;0.00;0.00;0.62;;;;;18.90;1.00;;;;;;2317217;40;3777;31
2021/07/02 04:11:49;0.00;0.00;0.62;0.00;0.00;0.62;;;;;18.10;1.00;;;;;;2262978;61;894;-85
2021/07/02 04:14:16;395082.00;1.32;681.35;118385.00;0.39;205.30;;;;;18.20;1.00;;;;;;2257426;61;929;-85
2021/07/02 04:24:06;97004.00;0.32;168.40;30296.00;0.10;53.10;;;;;18.40;1.00;;;;;;2307831;40;3564;31
2021/07/02 04:26:33;27438.00;0.09;48.15;0.00;0.00;0.62;;;;;18.70;1.00;;;;;;2259107;61;1359;-88
2021/07/02 04:31:29;0.00;0.00;0.62;0.00;0.00;0.62;;;;;18.60;1.00;;;;;;2270600;61;1412;-84
2021/07/02 04:33:56;156472.00;0.52;270.96;0.00;0.00;0.62;;;;;18.60;1.00;;;;;;2268991;61;1021;-85
2021/07/02 04:36:23;0.00;0.00;0.62;0.00;0.00;0.62;;;;;18.60;1.00;;;;;;2265013;61;981;-86
2021/07/02 04:38:53;38481.00;0.13;67.26;0.00;0.00;0.62;;;;;18.70;1.00;;;;;;2264340;61;1393;-85
2021/07/02 04:43:48;175508.00;0.59;303.75;58498.00;0.19;101.88;;;;;18.40;1.00;;;;;;2266848;61;2041;-85
2021/07/02 04:48:44;49732.00;0.17;86.72;0.00;0.00;0.62;;;;;18.50;1.00;;;;;;2267227;61;1397;-84
2021/07/02 04:56:12;248850.00;0.83;429.97;41467.00;0.14;72.43;;;;;18.80;1.00;;;;;;2270947;61;1280;-86
2021/07/02 05:08:34;83146.00;0.28;144.47;14071.00;0.05;25.00;;;;;19.30;1.00;;;;;;2262577;61;1405;-86
2021/07/02 05:15:56;109928.00;0.37;190.71;31817.00;0.11;55.73;;;;;19.30;1.00;;;;;;2266776;61;1397;-86
2021/07/02 05:20:51;76402.00;0.25;132.82;0.00;0.00;0.62;;;;;19.50;1.00;;;;;;2266907;61;1325;-82
2021/07/02 05:23:18;0.00;0.00;0.62;0.00;0.00;0.62;;;;;19.30;1.00;;;;;;2265105;61;1934;-84
2021/07/02 05:25:47;27547.00;0.09;48.34;0.00;0.00;0.62;;;;;19.50;1.00;;;;;;2265094;61;997;-85
2021/07/02 05:28:14;215103.00;0.72;371.92;81830.00;0.27;142.20;;;;;19.60;1.00;;;;;;2265027;61;1518;-85
2021/07/02 05:40:32;0.00;0.00;0.62;0.00;0.00;0.62;;;;;20.40;1.00;;;;;;2266975;61;1282;-86
2021/07/02 05:45:28;318286.00;1.06;549.35;71955.00;0.24;125.14;;;;;21.40;1.00;;;;;;2267060;61;1298;-84
2021/07/02 05:50:23;9191.00;0.03;16.55;0.00;0.00;0.62;;;;;24.30;1.00;;;;;;2266908;61;1356;-82
2021/07/02 05:52:51;0.00;0.00;0.62;0.00;0.00;0.62;;;;;25.40;1.00;;;;;;2261458;61;1002;-84
2021/07/02 05:55:20;0.00;0.00;0.62;0.00;0.00;0.62;;;;;26.20;1.00;;;;;;2264040;61;1058;-84
2021/07/02 05:57:46;95259.00;0.32;165.39;28166.00;0.09;49.41;;;;;26.70;1.00;;;;;;2265013;61;1396;-87
2021/07/02 06:00:14;0.00;0.00;0.62;0.00;0.00;0.62;;;;;27.40;1.00;;;;;;2264353;61;964;-85
2021/07/02 06:02:43;16318.00;0.05;28.89;0.00;0.00;0.62;;;;;28.20;1.00;;;;;;2257866;61;1920;-85
2021/07/02 06:05:10;0.00;0.00;0.62;0.00;0.00;0.62;;;;;28.80;1.00;;;;;;2257873;61;1026;-85
2021/07/02 06:07:48;0.00;0.00;0.62;0.00;0.00;0.62;;;;;29.60;1.00;;;;;;2261284;61;1349;-84
2021/07/02 06:10:18;30606.00;0.10;53.63;0.00;0.00;0.62;;;;;30.30;1.00;;;;;;2267534;61;949;-85
2021/07/02 06:17:50;616068.00;2.05;1061.97;0.00;0.00;0.62;;;;;30.90;1.00;;;;;;2261921;61;1665;-86
2021/07/02 06:20:22;38874.00;0.13;67.94;0.00;0.00;0.62;;;;;30.80;1.00;;;;;;2259763;61;1182;-87
2021/07/02 06:22:49;143159.00;0.48;248.02;0.00;0.00;0.62;;;;;31.30;1.00;;;;;;2260540;61;2042;-88
2021/07/02 06:25:17;125809.00;0.42;218.10;0.00;0.00;0.62;;;;;31.10;1.00;;;;;;2259535;61;1594;-87
2021/07/02 06:27:47;0.00;0.00;0.62;0.00;0.00;0.62;;;;;31.40;1.00;;;;;;2259991;61;1186;-87
2021/07/02 06:30:15;86297.00;0.29;149.91;0.00;0.00;0.62;;;;;30.90;1.00;;;;;;2260846;61;1165;-88
2021/07/02 06:32:42;12893.00;0.04;22.96;0.00;0.00;0.62;;;;;30.90;1.00;;;;;;2258961;61;1413;-87
2021/07/02 06:35:12;148.00;0.00;0.88;0.00;0.00;0.62;;;;;31.70;1.00;;;;;;2262594;61;1181;-87
2021/07/02 06:37:39;105810.00;0.35;183.60;0.00;0.00;0.62;;;;;32.70;1.00;;;;;;2262491;61;1104;-87
2021/07/02 06:40:08;109047.00;0.36;189.19;0.00;0.00;0.62;;;;;33.00;1.00;;;;;;2261828;61;1114;-87
2021/07/02 06:42:36;67400.00;0.22;117.27;0.00;0.00;0.62;;;;;33.30;1.00;;;;;;2256931;61;1939;-87
2021/07/02 06:45:07;70739.00;0.24;123.04;0.00;0.00;0.62;;;;;33.10;1.00;;;;;;2257453;61;1189;-87
2021/07/02 06:47:34;0.00;0.00;0.62;0.00;0.00;0.62;;;;;33.70;1.00;;;;;;2259144;61;1141;-89
2021/07/02 06:50:04;70387.00;0.23;122.43;0.00;0.00;0.62;;;;;34.00;1.00;;;;;;2259718;61;1209;-87
2021/07/02 06:52:32;60581.00;0.20;105.48;0.00;0.00;0.62;;;;;34.00;1.00;;;;;;2253716;61;1345;-86
2021/07/02 06:55:02;118046.00;0.39;204.71;52694.00;0.18;91.84;;;;;33.90;1.00;;;;;;2252294;61;1201;-87
2021/07/02 06:57:29;0.00;0.00;0.62;0.00;0.00;0.62;;;;;33.80;1.00;;;;;;2252971;61;1290;-87
2021/07/02 06:59:58;0.00;0.00;0.62;0.00;0.00;0.62;;;;;34.10;1.00;;;;;;2253595;61;1195;-87
2021/07/02 07:02:25;33831.00;0.11;59.21;0.00;0.00;0.62;;;;;34.30;1.00;;;;;;2258111;61;2003;-87
2021/07/02 07:04:54;0.00;0.00;0.62;0.00;0.00;0.62;;;;;34.10;1.00;;;;;;2259662;61;1149;-87
2021/07/02 07:07:24;28400.00;0.09;49.81;0.00;0.00;0.62;;;;;34.30;1.00;;;;;;2259484;61;1093;-87
2021/07/02 07:09:55;0.00;0.00;0.62;0.00;0.00;0.62;;;;;34.80;1.00;;;;;;2257753;61;1096;-87
2021/07/02 07:12:21;0.00;0.00;0.62;0.00;0.00;0.62;;;;;34.80;1.00;;;;;;2258178;61;1472;-88
2021/07/02 07:14:49;349742.00;1.17;603.42;97484.00;0.32;169.23;;;;;35.20;1.00;;;;;;2257861;61;1184;-88
2021/07/02 07:17:18;183306.00;0.61;317.18;35188.00;0.12;61.56;;;;;35.60;1.00;;;;;;2258170;61;1215;-89
2021/07/02 07:19:45;0.00;0.00;0.62;0.00;0.00;0.62;;;;;35.30;1.00;;;;;;2251589;61;1126;-89
2021/07/02 07:22:12;104894.00;0.35;182.02;0.00;0.00;0.62;;;;;35.10;1.00;;;;;;2251902;61;1419;-90
2021/07/02 07:24:39;0.00;0.00;0.62;0.00;0.00;0.62;;;;;35.40;1.00;;;;;;2250158;61;1958;-89
2021/07/02 07:27:37;13029.00;0.04;23.20;0.00;0.00;0.62;;;;;35.30;1.00;;;;;;2251258;61;1169;-90
2021/07/02 07:30:05;347563.00;1.16;599.67;92186.00;0.31;160.08;;;;;35.50;1.00;;;;;;2251367;61;1219;-90
2021/07/02 07:32:38;349503.00;1.17;603.01;0.00;0.00;0.62;;;;;35.50;1.00;;;;;;2254419;61;1354;-91
2021/07/02 07:35:15;131066.00;0.44;227.17;0.00;0.00;0.62;;;;;35.10;1.00;;;;;;2253335;61;1168;-89
2021/07/02 07:37:47;0.00;0.00;0.62;0.00;0.00;0.62;;;;;35.50;1.00;;;;;;2254355;61;1125;-89
2021/07/02 07:40:15;38721.00;0.13;67.68;0.00;0.00;0.62;;;;;35.30;1.00;;;;;;2249803;61;1083;-89
2021/07/02 07:42:43;0.00;0.00;0.62;0.00;0.00;0.62;;;;;35.60;1.00;;;;;;2251718;61;2015;-89
2021/07/02 07:45:13;195991.00;0.65;339.02;52793.00;0.18;92.02;;;;;35.70;1.00;;;;;;2254535;61;1054;-89
2021/07/02 07:47:40;291753.00;0.97;503.74;17166.00;0.06;30.36;;;;;35.10;1.00;;;;;;2248640;61;1156;-90
2021/07/02 07:50:14;60176.00;0.20;104.78;0.00;0.00;0.62;;;;;34.60;1.00;;;;;;2254447;61;1121;-88
2021/07/02 07:52:52;30513.00;0.10;53.47;0.00;0.00;0.62;;;;;33.80;1.00;;;;;;2256096;61;1354;-89
2021/07/02 07:55:22;24779.00;0.08;43.54;0.00;0.00;0.62;;;;;32.90;1.00;;;;;;2248969;61;1057;-90
2021/07/02 07:57:50;137180.00;0.46;237.71;0.00;0.00;0.62;;;;;31.30;1.00;;;;;;2261217;61;1242;-87
2021/07/02 08:00:21;0.00;0.00;0.62;0.00;0.00;0.62;;;;;30.70;1.00;;;;;;2266290;61;1049;-90
2021/07/02 08:02:49;60476.00;0.20;105.30;0.00;0.00;0.62;;;;;30.20;1.00;;;;;;2255502;61;2005;-89
2021/07/02 08:05:21;51056.00;0.17;89.01;0.00;0.00;0.62;;;;;30.10;1.00;;;;;;2255282;61;1125;-88
2021/07/02 08:07:48;168.00;0.00;0.91;0.00;0.00;0.62;;;;;29.90;1.00;;;;;;2254972;61;1087;-87
2021/07/02 08:10:22;0.00;0.00;0.62;0.00;0.00;0.62;;;;;29.40;1.00;;;;;;2256496;61;1064;-89
2021/07/02 08:12:52;0.00;0.00;0.62;0.00;0.00;0.62;;;;;29.50;1.00;;;;;;2251533;61;1389;-89
2021/07/02 08:15:20;22724.00;0.08;39.99;0.00;0.00;0.62;;;;;29.30;1.00;;;;;;2251780;61;1051;-89
2021/07/02 08:17:47;144855.00;0.48;250.94;0.00;0.00;0.62;;;;;29.80;1.00;;;;;;2251107;61;1648;-88
2021/07/02 08:20:15;9913.00;0.03;17.80;0.00;0.00;0.62;;;;;30.40;1.00;;;;;;2251733;61;1022;-88
2021/07/02 08:22:42;0.00;0.00;0.62;0.00;0.00;0.62;;;;;30.80;1.00;;;;;;2257301;61;2006;-88
2021/07/02 08:25:10;13604.00;0.05;24.19;0.00;0.00;0.62;;;;;31.20;1.00;;;;;;2256865;61;1226;-89
2021/07/02 08:30:26;165616.00;0.55;286.71;65621.00;0.22;114.19;;;;;31.90;1.00;;;;;;2259396;61;1280;-89
2021/07/02 08:32:53;11057.00;0.04;19.78;0.00;0.00;0.62;;;;;31.40;1.00;;;;;;2261767;61;1359;-88
2021/07/02 08:35:22;0.00;0.00;0.62;0.00;0.00;0.62;;;;;31.50;1.00;;;;;;2262367;61;1107;-89
2021/07/02 08:37:52;0.00;0.00;0.62;0.00;0.00;0.62;;;;;31.90;1.00;;;;;;2258299;61;979;-90
2021/07/02 08:40:23;13187.00;0.04;23.47;0.00;0.00;0.62;;;;;31.70;1.00;;;;;;2257786;61;1602;-89
2021/07/02 08:42:51;222267.00;0.74;384.24;44361.00;0.15;77.43;;;;;32.00;1.00;;;;;;2258332;61;1922;-90
2021/07/02 08:45:20;113604.00;0.38;197.05;0.00;0.00;0.62;;;;;32.30;1.00;;;;;;2258285;61;1835;-89
2021/07/02 08:47:48;212794.00;0.71;367.94;57813.00;0.19;100.70;;;;;32.30;1.00;;;;;;2259441;61;1660;-90
2021/07/02 08:50:15;0.00;0.00;0.62;0.00;0.00;0.62;;;;;32.10;1.00;;;;;;2258949;61;1133;-90
2021/07/02 08:52:42;184083.00;0.61;318.52;0.00;0.00;0.62;;;;;32.20;1.00;;;;;;2259928;61;1413;-89
2021/07/02 08:55:12;0.00;0.00;0.62;0.00;0.00;0.62;;;;;31.60;1.00;;;;;;2260321;61;1176;-89
2021/07/02 09:00:40;163140.00;0.54;282.45;50254.00;0.17;87.63;;;;;30.40;1.00;;;;;;2263189;61;1030;-89
2021/07/02 09:03:26;535955.00;1.79;923.75;96358.00;0.32;167.28;;;;;30.80;1.00;;;;;;2263409;61;2008;-89
2021/07/02 09:05:56;198237.00;0.66;342.89;60090.00;0.20;104.63;;;;;31.00;1.00;;;;;;2263254;61;1074;-88
2021/07/02 09:08:24;177543.00;0.59;307.26;70745.00;0.24;123.05;;;;;31.00;1.00;;;;;;2261845;61;1172;-89
2021/07/02 09:10:52;249891.00;0.83;431.76;59962.00;0.20;104.41;;;;;31.10;1.00;;;;;;2262677;61;1152;-90
2021/07/02 09:13:20;169148.00;0.56;292.80;71584.00;0.24;124.50;;;;;30.50;1.00;;;;;;2261796;61;1314;-89
2021/07/02 09:15:50;190517.00;0.64;329.60;72869.00;0.24;126.72;;;;;30.00;1.00;;;;;;2262477;61;1156;-89
2021/07/02 09:18:18;205479.00;0.68;355.35;56211.00;0.19;97.93;;;;;30.10;1.00;;;;;;2262184;61;1195;-89
2021/07/02 09:20:46;167263.00;0.56;289.55;55870.00;0.19;97.34;;;;;30.20;1.00;;;;;;2263548;61;1294;-89
2021/07/02 09:23:18;117184.00;0.39;203.22;0.00;0.00;0.62;;;;;30.80;1.00;;;;;;2262516;61;2005;-89
2021/07/02 09:25:50;0.00;0.00;0.62;0.00;0.00;0.62;;;;;31.00;1.00;;;;;;2263366;61;1625;-90
2021/07/02 09:28:20;10527.00;0.04;18.86;0.00;0.00;0.62;;;;;30.70;1.00;;;;;;2262795;61;1119;-88
2021/07/02 09:30:53;0.00;0.00;0.62;0.00;0.00;0.62;;;;;30.20;1.00;;;;;;2261327;61;1132;-88
2021/07/02 09:33:24;7488.00;0.02;13.60;0.00;0.00;0.62;;;;;30.20;1.00;;;;;;2262424;61;1422;-88
2021/07/02 09:35:57;157424.00;0.52;272.60;27202.00;0.09;47.74;;;;;30.20;1.00;;;;;;2261822;61;1129;-87
2021/07/02 09:38:33;0.00;0.00;0.62;0.00;0.00;0.62;;;;;29.90;1.00;;;;;;2261235;61;1140;-88
2021/07/02 09:41:00;0.00;0.00;0.62;0.00;0.00;0.62;;;;;29.60;1.00;;;;;;2261122;61;1137;-88
2021/07/02 09:43:29;37973.00;0.13;66.38;0.00;0.00;0.62;;;;;29.30;1.00;;;;;;2263173;61;2023;-89
2021/07/02 09:46:03;128921.00;0.43;223.47;43550.00;0.15;76.03;;;;;29.50;1.00;;;;;;2264386;61;1143;-87
2021/07/02 09:48:33;34273.00;0.11;59.98;0.00;0.00;0.62;;;;;29.40;1.00;;;;;;2264200;61;1196;-88
2021/07/02 09:51:06;24634.00;0.08;43.29;0.00;0.00;0.62;;;;;29.20;1.00;;;;;;2264252;61;1059;-87
2021/07/02 09:53:35;1631.00;0.01;3.45;0.00;0.00;0.62;;;;;29.00;1.00;;;;;;2264119;61;1463;-88
2021/07/02 09:56:05;42335.00;0.14;73.93;0.00;0.00;0.62;;;;;28.70;1.00;;;;;;2263691;61;1153;-88
2021/07/02 09:58:39;13936.00;0.05;24.77;0.00;0.00;0.62;;;;;28.60;1.00;;;;;;2262744;61;1112;-87
2021/07/02 10:01:25;0.00;0.00;0.62;0.00;0.00;0.62;;;;;28.20;1.00;;;;;;2261812;61;1179;-87
2021/07/02 10:03:53;73418.00;0.24;127.67;0.00;0.00;0.62;;;;;28.10;1.00;;;;;;2263182;61;2022;-88
2021/07/02 10:06:21;32105.00;0.11;56.23;0.00;0.00;0.62;;;;;28.40;1.00;;;;;;2263917;61;1108;-87
2021/07/02 10:08:50;147072.00;0.49;254.76;0.00;0.00;0.62;;;;;28.40;1.00;;;;;;2264278;61;1172;-88
2021/07/02 10:11:17;0.00;0.00;0.62;0.00;0.00;0.62;;;;;28.30;1.00;;;;;;2260141;61;1046;-87
2021/07/02 10:13:50;63557.00;0.21;110.63;0.00;0.00;0.62;;;;;28.40;1.00;;;;;;2263350;61;1289;-87
2021/07/02 10:16:19;162166.00;0.54;280.77;0.00;0.00;0.62;;;;;28.50;1.00;;;;;;2264009;61;966;-88
2021/07/02 10:18:49;19823.00;0.07;34.96;0.00;0.00;0.62;;;;;28.40;1.00;;;;;;2260372;61;1253;-89
2021/07/02 10:21:18;47754.00;0.16;83.30;0.00;0.00;0.62;;;;;28.30;1.00;;;;;;2264441;61;1176;-88
2021/07/02 10:23:47;62374.00;0.21;108.58;0.00;0.00;0.62;;;;;28.30;1.00;;;;;;2264531;61;1920;-87
2021/07/02 10:26:16;18710.00;0.06;33.04;0.00;0.00;0.62;;;;;28.40;1.00;;;;;;2259908;61;969;-87
2021/07/02 10:28:44;37005.00;0.12;64.71;0.00;0.00;0.62;;;;;28.40;1.00;;;;;;2259857;61;1134;-88
2021/07/02 10:31:12;199757.00;0.67;345.51;5605.00;0.02;10.33;;;;;28.50;1.00;;;;;;2259892;61;1159;-88
2021/07/02 10:33:44;15897.00;0.05;28.16;0.00;0.00;0.62;;;;;28.00;1.00;;;;;;2260010;61;1364;-88
2021/07/02 10:36:13;37885.00;0.13;66.23;0.00;0.00;0.62;;;;;27.50;1.00;;;;;;2253215;61;1006;-87
2021/07/02 10:38:42;0.00;0.00;0.62;0.00;0.00;0.62;;;;;27.50;1.00;;;;;;2251746;61;1095;-88
2021/07/02 10:41:11;59278.00;0.20;103.23;0.00;0.00;0.62;;;;;27.40;1.00;;;;;;2251234;61;1042;-87
2021/07/02 10:43:38;0.00;0.00;0.62;0.00;0.00;0.62;;;;;27.20;1.00;;;;;;2252199;61;2020;-87
2021/07/02 10:46:15;48455.00;0.16;84.51;0.00;0.00;0.62;;;;;27.40;1.00;;;;;;2259823;61;1165;-88
2021/07/02 10:48:52;0.00;0.00;0.62;0.00;0.00;0.62;;;;;27.50;1.00;;;;;;2253365;61;1138;-88
2021/07/02 10:51:46;11073.00;0.04;19.81;0.00;0.00;0.62;;;;;27.60;1.00;;;;;;2259146;61;1549;-87
2021/07/02 10:54:33;116370.00;0.39;201.82;0.00;0.00;0.62;;;;;27.80;1.00;;;;;;2259649;61;1025;-87
2021/07/02 10:57:06;558562.00;1.86;962.72;14147.00;0.05;25.13;;;;;27.90;1.00;;;;;;2262015;61;1533;-86
2021/07/02 11:00:04;258223.00;0.86;446.09;0.00;0.00;0.62;;;;;28.20;1.00;;;;;;2261126;61;1076;-87
2021/07/02 11:02:32;0.00;0.00;0.62;0.00;0.00;0.62;;;;;28.50;1.00;;;;;;2258336;61;1409;-87
2021/07/02 11:05:01;214531.00;0.72;370.93;7337.00;0.02;13.34;;;;;27.90;1.00;;;;;;2262844;61;1939;-88
2021/07/02 11:07:44;90094.00;0.30;156.47;0.00;0.00;0.62;;;;;27.80;1.00;;;;;;2262639;61;1153;-86
2021/07/02 11:10:12;142683.00;0.48;247.20;0.00;0.00;0.62;;;;;27.20;1.00;;;;;;2262048;61;1220;-88
2021/07/02 11:13:06;145411.00;0.48;251.90;0.00;0.00;0.62;;;;;27.00;1.00;;;;;;2261110;61;1443;-87
2021/07/02 11:15:33;173628.00;0.58;300.52;0.00;0.00;0.62;;;;;27.10;1.00;;;;;;2262271;61;1162;-87
2021/07/02 11:18:19;27289.00;0.09;47.89;0.00;0.00;0.62;;;;;27.30;1.00;;;;;;2262350;61;948;-86
2021/07/02 11:20:48;208064.00;0.69;359.80;0.00;0.00;0.62;;;;;27.50;1.00;;;;;;2262449;61;1202;-87
2021/07/02 11:23:20;80936.00;0.27;140.65;0.00;0.00;0.62;;;;;27.80;1.00;;;;;;2263040;61;1447;-87
2021/07/02 11:25:52;373614.00;1.25;644.45;68025.00;0.23;118.35;;;;;28.20;1.00;;;;;;2262797;61;1950;-87
2021/07/02 11:28:39;66547.00;0.22;115.79;0.00;0.00;0.62;;;;;28.00;1.00;;;;;;2262271;61;1085;-87
2021/07/02 11:31:09;273519.00;0.91;472.39;72634.00;0.24;126.31;;;;;27.80;1.00;;;;;;2261293;61;1756;-88
2021/07/02 11:33:37;0.00;0.00;0.62;0.00;0.00;0.62;;;;;27.70;1.00;;;;;;2262926;61;1404;-87
2021/07/02 11:36:15;19582.00;0.07;34.55;0.00;0.00;0.62;;;;;27.80;1.00;;;;;;2263195;61;1782;-87
2021/07/02 11:38:54;171559.00;0.57;296.95;63294.00;0.21;110.17;;;;;27.90;1.00;;;;;;2260406;61;1149;-86
2021/07/02 11:41:28;213708.00;0.71;369.52;52766.00;0.18;91.97;;;;;27.90;1.00;;;;;;2260394;61;1712;-86
2021/07/02 11:43:56;217336.00;0.72;375.76;66084.00;0.22;114.99;;;;;27.70;1.00;;;;;;2261027;61;2029;-87
2021/07/02 11:46:24;192518.00;0.64;333.04;65366.00;0.22;113.75;;;;;28.00;1.00;;;;;;2260690;61;1120;-86
2021/07/02 11:48:52;170801.00;0.57;295.65;66928.00;0.22;116.45;;;;;28.10;1.00;;;;;;2260935;61;1787;-88
2021/07/02 11:51:22;167574.00;0.56;290.09;64529.00;0.22;112.31;;;;;28.00;1.00;;;;;;2261120;61;1126;-87
2021/07/02 11:53:51;25811.00;0.09;45.33;0.00;0.00;0.62;;;;;28.50;1.00;;;;;;2262284;61;1576;-89
2021/07/02 11:56:20;25601.00;0.09;44.97;0.00;0.00;0.62;;;;;28.70;1.00;;;;;;2261408;61;1831;-88
2021/07/02 11:58:53;0.00;0.00;0.62;0.00;0.00;0.62;;;;;28.50;1.00;;;;;;2261501;61;1235;-87
2021/07/02 12:01:22;0.00;0.00;0.62;0.00;0.00;0.62;;;;;28.70;1.00;;;;;;2260301;61;1183;-86
2021/07/02 12:03:51;61040.00;0.20;106.27;0.00;0.00;0.62;;;;;28.20;1.00;;;;;;2261641;61;1993;-87
2021/07/02 12:06:26;17060.00;0.06;30.18;0.00;0.00;0.62;;;;;28.10;1.00;;;;;;2261236;61;1292;-88
2021/07/02 12:08:55;170815.00;0.57;295.67;12050.00;0.04;21.50;;;;;28.50;1.00;;;;;;2262237;61;1164;-87
2021/07/02 12:11:31;0.00;0.00;0.62;0.00;0.00;0.62;;;;;28.50;1.00;;;;;;2261694;61;1033;-87
2021/07/02 12:14:05;70020.00;0.23;121.79;0.00;0.00;0.62;;;;;28.20;1.00;;;;;;2261425;61;1432;-88
2021/07/02 12:16:36;0.00;0.00;0.62;0.00;0.00;0.62;;;;;28.50;1.00;;;;;;2262666;61;1663;-87
2021/07/02 12:19:06;72270.00;0.24;125.68;0.00;0.00;0.62;;;;;28.60;1.00;;;;;;2261482;61;1101;-88
2021/07/02 12:21:36;0.00;0.00;0.62;0.00;0.00;0.62;;;;;28.70;1.00;;;;;;2260853;61;1178;-87
2021/07/02 12:24:05;61512.00;0.21;107.09;0.00;0.00;0.62;;;;;28.70;1.00;;;;;;2262108;61;1939;-87
2021/07/02 12:26:34;44019.00;0.15;76.84;0.00;0.00;0.62;;;;;28.50;1.00;;;;;;2261914;61;1070;-87
2021/07/02 12:29:11;18575.00;0.06;32.80;0.00;0.00;0.62;;;;;28.60;1.00;;;;;;2263252;61;1146;-87
2021/07/02 12:31:44;166659.00;0.56;288.51;62785.00;0.21;109.29;;;;;28.90;1.00;;;;;;2261423;61;1130;-88
2021/07/02 12:34:19;241487.00;0.80;417.31;71474.00;0.24;124.31;;;;;29.10;1.00;;;;;;2262370;61;1251;-87
2021/07/02 12:37:05;171015.00;0.57;296.01;58827.00;0.20;102.45;;;;;29.10;1.00;;;;;;2262187;61;1097;-87
2021/07/02 12:39:34;249409.00;0.83;430.93;0.00;0.00;0.62;;;;;28.90;1.00;;;;;;2261979;61;1297;-87
2021/07/02 12:42:06;112509.00;0.38;195.16;0.00;0.00;0.62;;;;;29.00;1.00;;;;;;2262466;61;1512;-87
2021/07/02 12:44:34;212817.00;0.71;367.98;0.00;0.00;0.62;;;;;29.20;1.00;;;;;;2263125;61;1989;-88
2021/07/02 12:47:06;208807.00;0.70;361.08;0.00;0.00;0.62;;;;;29.00;1.00;;;;;;2262811;61;1179;-87
2021/07/02 12:49:43;70576.00;0.24;122.76;0.00;0.00;0.62;;;;;28.90;1.00;;;;;;2262951;61;1148;-86
2021/07/02 12:55:26;0.00;0.00;0.62;0.00;0.00;0.62;;;;;28.50;1.00;;;;;;2257968;61;1147;-87
2021/07/02 12:57:56;8314.00;0.03;15.03;0.00;0.00;0.62;;;;;28.80;1.00;;;;;;2257768;61;1136;-87
2021/07/02 13:00:33;39509.00;0.13;69.04;0.00;0.00;0.62;;;;;28.50;1.00;;;;;;2257866;61;1521;-87
2021/07/02 13:03:04;82481.00;0.27;143.32;14769.00;0.05;26.21;;;;;28.30;1.00;;;;;;2258113;61;1439;-88
2021/07/02 13:05:34;0.00;0.00;0.62;0.00;0.00;0.62;;;;;28.20;1.00;;;;;;2258139;61;2008;-88
2021/07/02 13:08:04;0.00;0.00;0.62;0.00;0.00;0.62;;;;;28.10;1.00;;;;;;2257777;61;1021;-88
2021/07/02 13:10:34;45514.00;0.15;79.43;0.00;0.00;0.62;;;;;28.60;1.00;;;;;;2259642;61;1588;-89
2021/07/02 13:13:14;241262.00;0.80;416.92;96002.00;0.32;166.67;;;;;29.10;1.00;;;;;;2249669;61;1425;-89
2021/07/02 13:16:00;0.00;0.00;0.62;0.00;0.00;0.62;;;;;29.30;1.00;;;;;;2247964;61;1546;-90
2021/07/02 13:18:28;182995.00;0.61;316.65;19238.00;0.06;33.95;;;;;29.30;1.00;;;;;;2247537;61;1370;-88
2021/07/02 13:20:57;0.00;0.00;0.62;0.00;0.00;0.62;;;;;29.40;1.00;;;;;;2246792;61;1192;-89
2021/07/02 13:23:28;0.00;0.00;0.62;0.00;0.00;0.62;;;;;29.60;1.00;;;;;;2248423;61;1348;-89
2021/07/02 13:26:13;0.00;0.00;0.62;0.00;0.00;0.62;;;;;29.50;1.00;;;;;;2248366;61;2010;-89
2021/07/02 13:28:42;44516.00;0.15;77.70;0.00;0.00;0.62;;;;;29.30;1.00;;;;;;2248888;61;1180;-88
2021/07/02 13:31:29;74370.00;0.25;129.31;0.00;0.00;0.62;;;;;29.20;1.00;;;;;;2258590;61;1057;-88
2021/07/02 13:34:08;0.00;0.00;0.62;0.00;0.00;0.62;;;;;29.30;1.00;;;;;;2261589;61;1553;-88
2021/07/02 13:36:41;0.00;0.00;0.62;0.00;0.00;0.62;;;;;29.40;1.00;;;;;;2261532;61;1656;-89
2021/07/02 13:39:13;8793.00;0.03;15.86;0.00;0.00;0.62;;;;;29.00;1.00;;;;;;2259161;61;1148;-88
2021/07/02 13:41:41;0.00;0.00;0.62;0.00;0.00;0.62;;;;;29.00;1.00;;;;;;2258907;61;1125;-89
2021/07/02 13:44:14;76244.00;0.25;132.55;0.00;0.00;0.62;;;;;28.90;1.00;;;;;;2260894;61;1547;-88
2021/07/02 13:46:44;1045.00;0.00;2.43;0.00;0.00;0.62;;;;;28.70;1.00;;;;;;2262230;61;1942;-87
2021/07/02 13:49:16;0.00;0.00;0.62;0.00;0.00;0.62;;;;;28.50;1.00;;;;;;2262826;61;1159;-86
2021/07/02 13:51:43;174953.00;0.58;302.80;14479.00;0.05;25.71;;;;;28.20;1.00;;;;;;2262946;61;1093;-89
2021/07/02 13:54:14;49520.00;0.17;86.36;0.00;0.00;0.62;;;;;28.10;1.00;;;;;;2260672;61;1428;-88
2021/07/02 13:56:41;0.00;0.00;0.62;0.00;0.00;0.62;;;;;27.90;1.00;;;;;;2260136;61;1145;-89
2021/07/02 13:59:08;21423.00;0.07;37.73;0.00;0.00;0.62;;;;;27.70;1.00;;;;;;2261509;61;1300;-89
2021/07/02 14:01:36;149167.00;0.50;258.37;0.00;0.00;0.62;;;;;27.20;1.00;;;;;;2261084;61;1145;-89
2021/07/02 14:04:04;76272.00;0.25;132.60;0.00;0.00;0.62;;;;;27.10;1.00;;;;;;2260659;61;1260;-88
2021/07/02 14:06:31;200672.00;0.67;347.08;68617.00;0.23;119.37;;;;;27.50;1.00;;;;;;2260684;61;2019;-90
2021/07/02 14:08:58;9636.00;0.03;17.32;0.00;0.00;0.62;;;;;27.80;1.00;;;;;;2262285;61;1166;-86
2021/07/02 14:11:26;8303.00;0.03;15.01;0.00;0.00;0.62;;;;;27.80;1.00;;;;;;2261672;61;1065;-88
2021/07/02 14:13:53;34338.00;0.11;60.09;0.00;0.00;0.62;;;;;27.50;1.00;;;;;;2263570;61;1243;-89
2021/07/02 14:16:20;8536.00;0.03;15.41;0.00;0.00;0.62;;;;;27.60;1.00;;;;;;2261440;61;1298;-88
2021/07/02 14:18:47;39675.00;0.13;69.33;0.00;0.00;0.62;;;;;27.00;1.00;;;;;;2260732;61;1227;-88
2021/07/02 14:21:14;0.00;0.00;0.62;0.00;0.00;0.62;;;;;26.90;1.00;;;;;;2258993;61;1641;-87
2021/07/02 14:23:41;0.00;0.00;0.62;0.00;0.00;0.62;;;;;27.40;1.00;;;;;;2258686;61;1351;-87
2021/07/02 14:26:08;201.00;0.00;0.97;0.00;0.00;0.62;;;;;27.50;1.00;;;;;;2258475;61;2010;-87
2021/07/02 14:28:37;10750.00;0.04;19.25;0.00;0.00;0.62;;;;;27.60;1.00;;;;;;2259338;61;1194;-88
2021/07/02 14:31:04;23673.00;0.08;41.63;0.00;0.00;0.62;;;;;28.10;1.00;;;;;;2260074;61;1250;-89
2021/07/02 14:33:32;0.00;0.00;0.62;0.00;0.00;0.62;;;;;28.70;1.00;;;;;;2259651;61;1681;-89
2021/07/02 14:36:00;9053.00;0.03;16.31;0.00;0.00;0.62;;;;;28.80;1.00;;;;;;2259214;61;1189;-88
2021/07/02 14:38:28;69934.00;0.23;121.65;0.00;0.00;0.62;;;;;28.80;1.00;;;;;;2264124;61;1188;-89
2021/07/02 14:40:57;134954.00;0.45;233.87;0.00;0.00;0.62;;;;;28.70;1.00;;;;;;2263517;61;1065;-89
2021/07/02 14:43:27;34224.00;0.11;59.89;0.00;0.00;0.62;;;;;28.70;1.00;;;;;;2263652;61;1323;-86
2021/07/02 14:45:56;8971.00;0.03;16.17;0.00;0.00;0.62;;;;;28.30;1.00;;;;;;2264329;61;1983;-89
2021/07/02 14:48:32;31072.00;0.10;54.44;0.00;0.00;0.62;;;;;27.90;1.00;;;;;;2264459;61;1091;-89
2021/07/02 14:51:03;95601.00;0.32;165.98;0.00;0.00;0.62;;;;;27.70;1.00;;;;;;2260640;61;1097;-89
2021/07/02 14:53:31;354902.00;1.18;612.29;109541.00;0.37;190.04;;;;;28.00;1.00;;;;;;2264470;61;1326;-88
2021/07/02 14:55:59;42337.00;0.14;73.93;0.00;0.00;0.62;;;;;28.30;1.00;;;;;;2260713;61;1036;-89
2021/07/02 14:58:26;21805.00;0.07;38.40;0.00;0.00;0.62;;;;;28.30;1.00;;;;;;2264457;61;1294;-87
2021/07/02 15:00:57;0.00;0.00;0.62;0.00;0.00;0.62;;;;;28.00;1.00;;;;;;2260725;61;945;-89
2021/07/02 15:03:24;0.00;0.00;0.62;0.00;0.00;0.62;;;;;27.10;1.00;;;;;;2264178;61;1740;-89
2021/07/02 15:05:51;54497.00;0.18;94.96;0.00;0.00;0.62;;;;;26.70;1.00;;;;;;2264279;61;2002;-88
2021/07/02 15:08:18;0.00;0.00;0.62;0.00;0.00;0.62;;;;;26.40;1.00;;;;;;2264376;61;1108;-89
2021/07/02 15:10:45;17438.00;0.06;30.83;0.00;0.00;0.62;;;;;26.60;1.00;;;;;;2264021;61;1110;-88
2021/07/02 15:13:11;2002.00;0.01;4.09;0.00;0.00;0.62;;;;;26.90;1.00;;;;;;2263393;61;1303;-89
2021/07/02 15:15:38;0.00;0.00;0.62;0.00;0.00;0.62;;;;;27.00;1.00;;;;;;2264032;61;1630;-88